createdAt,value
2023-04-11T00:00:57.415Z,952.95
2023-04-11T00:03:57.674Z,952.86
2023-04-11T00:06:57.037Z,952.9
2023-04-11T00:09:58.050Z,952.8
2023-04-11T00:12:57.544Z,952.72
2023-04-11T00:15:57.344Z,952.76
2023-04-11T00:18:57.762Z,952.77
2023-04-11T00:21:57.446Z,952.6
2023-04-11T00:24:57.003Z,952.43
2023-04-11T00:27:57.291Z,952.31
2023-04-11T00:30:58.040Z,952.33
2023-04-11T00:33:57.366Z,952.21
2023-04-11T00:36:57.139Z,952.11
2023-04-11T00:40:05.724Z,952.13
2023-04-11T00:42:57.119Z,952.11
2023-04-11T00:45:57.947Z,952.07
2023-04-11T00:48:57.845Z,951.84
2023-04-11T00:51:57.006Z,951.79
2023-04-11T00:54:57.806Z,951.66
2023-04-11T00:57:56.986Z,951.75
2023-04-11T01:00:57.701Z,951.83
2023-04-11T01:03:57.386Z,951.79
2023-04-11T01:06:56.984Z,951.84
2023-04-11T01:09:56.789Z,951.88
2023-04-11T01:12:56.819Z,951.98
2023-04-11T01:15:57.105Z,951.88
2023-04-11T01:18:57.758Z,951.78
2023-04-11T01:21:57.484Z,951.76
2023-04-11T01:24:57.388Z,951.65
2023-04-11T01:27:56.769Z,951.55
2023-04-11T01:30:57.616Z,951.75
2023-04-11T01:33:57.370Z,951.74
2023-04-11T01:36:56.866Z,951.75
2023-04-11T01:39:57.324Z,951.71
2023-04-11T01:42:57.377Z,951.74
2023-04-11T01:45:57.083Z,951.74
2023-04-11T01:48:57.515Z,951.87
2023-04-11T01:51:57.198Z,951.94
2023-04-11T01:54:57.320Z,951.83
2023-04-11T01:57:57.074Z,951.75
2023-04-11T02:00:57.712Z,951.65
2023-04-11T02:03:57.145Z,951.46
2023-04-11T02:06:57.063Z,951.56
2023-04-11T02:09:57.000Z,951.63
2023-04-11T02:12:57.453Z,951.5
2023-04-11T02:15:57.428Z,951.5
2023-04-11T02:18:57.879Z,951.57
2023-04-11T02:21:57.411Z,951.6
2023-04-11T02:24:57.826Z,951.54
2023-04-11T02:27:57.636Z,951.51
2023-04-11T02:30:57.492Z,951.43
2023-04-11T02:33:57.684Z,951.47
2023-04-11T02:36:56.919Z,951.36
2023-04-11T02:39:57.576Z,951.4
2023-04-11T02:42:57.147Z,951.38
2023-04-11T02:46:09.495Z,951.28
2023-04-11T02:48:57.739Z,951.31
2023-04-11T02:51:57.135Z,951.36
2023-04-11T02:54:57.676Z,951.41
2023-04-11T02:57:57.101Z,951.38
2023-04-11T03:00:58.189Z,951.38
2023-04-11T03:03:57.066Z,951.38
2023-04-11T03:06:57.285Z,951.41
2023-04-11T03:09:57.997Z,951.48
2023-04-11T03:12:57.328Z,951.47
2023-04-11T03:15:57.744Z,951.47
2023-04-11T03:18:57.379Z,951.51
2023-04-11T03:21:56.888Z,951.58
2023-04-11T03:24:57.684Z,951.43
2023-04-11T03:27:56.905Z,951.57
2023-04-11T03:30:56.801Z,951.63
2023-04-11T03:33:57.762Z,951.64
2023-04-11T03:36:57.637Z,951.74
2023-04-11T03:39:56.691Z,951.71
2023-04-11T03:42:57.216Z,951.67
2023-04-11T03:45:57.673Z,951.79
2023-04-11T03:48:57.759Z,951.83
2023-04-11T03:51:57.367Z,951.94
2023-04-11T03:54:57.840Z,951.96
2023-04-11T03:57:57.341Z,952.02
2023-04-11T04:00:57.551Z,952.06
2023-04-11T04:03:57.692Z,952.09
2023-04-11T04:06:56.808Z,952.08
2023-04-11T04:09:57.738Z,952.14
2023-04-11T04:12:56.811Z,952.18
2023-04-11T04:15:57.075Z,952.14
2023-04-11T04:18:57.005Z,952.06
2023-04-11T04:21:57.137Z,952.02
2023-04-11T04:24:57.019Z,951.87
2023-04-11T04:27:58.053Z,951.7
2023-04-11T04:30:57.011Z,951.68
2023-04-11T04:33:57.632Z,951.44
2023-04-11T04:36:57.061Z,951.5
2023-04-11T04:39:57.680Z,951.4
2023-04-11T04:42:57.395Z,951.42
2023-04-11T04:45:57.046Z,951.45
2023-04-11T04:48:57.638Z,951.64
2023-04-11T04:51:57.759Z,951.67
2023-04-11T04:54:57.582Z,951.64
2023-04-11T04:57:57.075Z,951.81
2023-04-11T05:00:58.359Z,951.89
2023-04-11T05:03:57.898Z,951.81
2023-04-11T05:06:57.300Z,951.96
2023-04-11T05:09:57.461Z,951.89
2023-04-11T05:12:57.371Z,952.11
2023-04-11T05:15:58.262Z,952.05
2023-04-11T05:18:57.224Z,951.94
2023-04-11T05:21:57.058Z,952.04
2023-04-11T05:24:57.219Z,952.05
2023-04-11T05:27:58.236Z,952.16
2023-04-11T05:30:57.670Z,952.06
2023-04-11T05:33:58.227Z,952.04
2023-04-11T05:36:57.129Z,952.17
2023-04-11T05:39:57.832Z,952.2
2023-04-11T05:42:58.056Z,952.25
2023-04-11T05:45:57.635Z,952.4
2023-04-11T05:48:57.464Z,952.61
2023-04-11T05:51:56.943Z,952.64
2023-04-11T05:54:57.431Z,952.74
2023-04-11T05:57:57.415Z,953.02
2023-04-11T06:00:57.643Z,952.9
2023-04-11T06:03:57.333Z,953.01
2023-04-11T06:06:57.625Z,952.95
2023-04-11T06:09:57.141Z,952.98
2023-04-11T06:12:57.939Z,952.95
2023-04-11T06:15:57.778Z,952.9
2023-04-11T06:18:57.667Z,953.05
2023-04-11T06:21:57.531Z,953.22
2023-04-11T06:24:57.538Z,953.1
2023-04-11T06:27:58.112Z,953.23
2023-04-11T06:30:58.096Z,953.21
2023-04-11T06:33:57.160Z,953.22
2023-04-11T06:36:57.336Z,953.22
2023-04-11T06:39:57.056Z,953.02
2023-04-11T06:42:57.957Z,953.1
2023-04-11T06:45:57.279Z,953.12
2023-04-11T06:48:57.477Z,953.11
2023-04-11T06:51:57.422Z,953.08
2023-04-11T06:54:57.218Z,953.17
2023-04-11T06:57:57.549Z,953.24
2023-04-11T07:00:57.781Z,953.24
2023-04-11T07:03:58.033Z,953.37
2023-04-11T07:06:57.976Z,953.34
2023-04-11T07:09:57.670Z,953.26
2023-04-11T07:12:57.282Z,953.15
2023-04-11T07:15:57.509Z,953.17
2023-04-11T07:18:57.448Z,953.25
2023-04-11T07:21:57.006Z,953.27
2023-04-11T07:24:57.433Z,953.46
2023-04-11T07:27:56.975Z,953.37
2023-04-11T07:30:57.365Z,953.3
2023-04-11T07:33:57.516Z,953.48
2023-04-11T07:36:57.543Z,953.52
2023-04-11T07:39:57.117Z,953.62
2023-04-11T07:42:57.240Z,953.67
2023-04-11T07:45:57.240Z,953.65
2023-04-11T07:48:57.096Z,953.7
2023-04-11T07:51:56.941Z,953.67
2023-04-11T07:54:57.918Z,953.54
2023-04-11T07:57:57.353Z,953.5
2023-04-11T08:00:57.166Z,953.54
2023-04-11T08:03:58.092Z,953.45
2023-04-11T08:06:57.029Z,953.44
2023-04-11T08:09:57.543Z,953.41
2023-04-11T08:12:56.923Z,953.51
2023-04-11T08:15:57.031Z,953.47
2023-04-11T08:18:56.783Z,953.53
2023-04-11T08:21:56.938Z,953.52
2023-04-11T08:24:57.821Z,953.56
2023-04-11T08:27:56.980Z,953.55
2023-04-11T08:30:57.845Z,953.48
2023-04-11T08:34:00.502Z,953.53
2023-04-11T08:36:58.281Z,953.53
2023-04-11T08:39:58.207Z,953.44
2023-04-11T08:42:57.653Z,953.65
2023-04-11T08:45:58.182Z,953.65
2023-04-11T08:48:57.467Z,953.69
2023-04-11T08:51:56.990Z,953.73
2023-04-11T08:54:57.382Z,953.83
2023-04-11T08:57:57.556Z,953.76
2023-04-11T09:00:58.074Z,953.75
2023-04-11T09:03:58.193Z,953.99
2023-04-11T09:06:58.441Z,953.87
2023-04-11T09:09:58.087Z,953.99
2023-04-11T09:12:57.353Z,954.0
2023-04-11T09:15:58.047Z,954.05
2023-04-11T09:18:57.698Z,954.04
2023-04-11T09:21:57.587Z,954.05
2023-04-11T09:24:56.884Z,954.07
2023-04-11T09:27:57.440Z,954.12
2023-04-11T09:30:57.691Z,954.08
2023-04-11T09:33:57.765Z,954.01
2023-04-11T09:36:57.933Z,954.11
2023-04-11T09:39:57.365Z,954.05
2023-04-11T09:42:56.949Z,954.02
2023-04-11T09:45:57.410Z,953.93
2023-04-11T09:48:57.733Z,953.95
2023-04-11T09:51:57.060Z,953.85
2023-04-11T09:54:57.450Z,953.96
2023-04-11T09:57:56.884Z,953.93
2023-04-11T10:00:58.073Z,953.83
2023-04-11T10:03:57.901Z,954.07
2023-04-11T10:06:57.135Z,953.88
2023-04-11T10:09:58.148Z,953.93
2023-04-11T10:12:57.554Z,953.92
2023-04-11T10:15:57.340Z,953.94
2023-04-11T10:18:57.149Z,953.96
2023-04-11T10:21:57.081Z,953.96
2023-04-11T10:24:57.644Z,954.04
2023-04-11T10:27:57.275Z,954.0
2023-04-11T10:30:58.153Z,954.2
2023-04-11T10:33:57.249Z,954.39
2023-04-11T10:36:57.139Z,954.42
2023-04-11T10:39:57.727Z,954.42
2023-04-11T10:42:57.092Z,954.43
2023-04-11T10:45:56.735Z,954.47
2023-04-11T10:48:56.987Z,954.42
2023-04-11T10:51:57.615Z,954.4
2023-04-11T10:54:57.075Z,954.3
2023-04-11T10:57:57.537Z,954.43
2023-04-11T11:00:57.654Z,954.27
2023-04-11T11:04:25.322Z,954.37
2023-04-11T11:06:57.624Z,954.25
2023-04-11T11:09:57.733Z,954.43
2023-04-11T11:12:57.489Z,954.29
2023-04-11T11:15:57.835Z,954.35
2023-04-11T11:18:56.929Z,954.22
2023-04-11T11:21:57.413Z,954.37
2023-04-11T11:24:57.337Z,954.38
2023-04-11T11:27:57.955Z,954.32
2023-04-11T11:30:57.762Z,954.42
2023-04-11T11:34:04.792Z,954.33
2023-04-11T11:36:57.938Z,954.46
2023-04-11T11:39:58.233Z,954.35
2023-04-11T11:42:57.063Z,954.27
2023-04-11T11:45:57.328Z,954.34
2023-04-11T11:48:58.010Z,954.16
2023-04-11T11:51:56.841Z,954.43
2023-04-11T11:54:57.204Z,954.34
2023-04-11T11:57:57.774Z,954.43
2023-04-11T12:00:57.510Z,954.45
2023-04-11T12:03:57.173Z,954.39
2023-04-11T12:06:57.763Z,954.27
2023-04-11T12:09:57.177Z,954.29
2023-04-11T12:12:56.560Z,954.25
2023-04-11T12:15:57.740Z,954.25
2023-04-11T12:18:57.590Z,954.28
2023-04-11T12:21:57.091Z,954.28
2023-04-11T12:24:57.504Z,954.33
2023-04-11T12:27:57.479Z,954.19
2023-04-11T12:30:57.352Z,954.34
2023-04-11T12:33:57.329Z,954.48
2023-04-11T12:36:57.338Z,954.65
2023-04-11T12:39:57.244Z,954.59
2023-04-11T12:42:57.651Z,954.41
2023-04-11T12:45:58.045Z,954.51
2023-04-11T12:48:57.760Z,954.49
2023-04-11T12:51:57.907Z,954.54
2023-04-11T12:54:57.162Z,954.42
2023-04-11T12:57:57.398Z,954.54
2023-04-11T13:00:57.918Z,954.54
2023-04-11T13:03:56.862Z,954.61
2023-04-11T13:06:57.051Z,954.63
2023-04-11T13:09:58.017Z,954.54
2023-04-11T13:13:00.669Z,954.49
2023-04-11T13:15:56.848Z,954.58
2023-04-11T13:18:58.072Z,954.67
2023-04-11T13:21:57.322Z,954.64
2023-04-11T13:24:57.304Z,954.6
2023-04-11T13:27:57.325Z,954.64
2023-04-11T13:30:57.101Z,954.6
2023-04-11T13:33:57.454Z,954.51
2023-04-11T13:36:57.964Z,954.58
2023-04-11T13:39:57.896Z,954.48
2023-04-11T13:42:57.419Z,954.5
2023-04-11T13:45:57.923Z,954.6
2023-04-11T13:48:57.439Z,954.61
2023-04-11T13:51:57.145Z,954.6
2023-04-11T13:54:57.408Z,954.52
2023-04-11T13:57:57.288Z,954.64
2023-04-11T14:00:58.179Z,954.53
2023-04-11T14:03:57.273Z,954.59
2023-04-11T14:06:56.939Z,954.66
2023-04-11T14:09:57.245Z,954.63
2023-04-11T14:12:57.003Z,954.61
2023-04-11T14:16:07.805Z,954.52
2023-04-11T14:18:57.642Z,954.63
2023-04-11T14:21:57.336Z,954.58
2023-04-11T14:24:57.412Z,954.46
2023-04-11T14:27:57.339Z,954.53
2023-04-11T14:30:58.139Z,954.59
2023-04-11T14:33:57.532Z,954.52
2023-04-11T14:36:57.117Z,954.47
2023-04-11T14:39:57.956Z,954.59
2023-04-11T14:42:57.684Z,954.43
2023-04-11T14:45:57.669Z,954.27
2023-04-11T14:48:57.725Z,954.51
2023-04-11T14:51:57.120Z,954.45
2023-04-11T14:54:57.052Z,954.49
2023-04-11T14:57:57.244Z,954.39
2023-04-11T15:00:57.511Z,954.51
2023-04-11T15:03:57.402Z,954.47
2023-04-11T15:06:58.027Z,954.4
2023-04-11T15:09:57.231Z,954.41
2023-04-11T15:12:57.249Z,954.37
2023-04-11T15:15:57.126Z,954.33
2023-04-11T15:18:57.659Z,954.37
2023-04-11T15:21:57.419Z,954.46
2023-04-11T15:24:57.328Z,954.44
2023-04-11T15:27:57.450Z,954.58
2023-04-11T15:30:58.179Z,954.5
2023-04-11T15:33:57.876Z,954.46
2023-04-11T15:36:57.372Z,954.47
2023-04-11T15:39:57.840Z,954.44
2023-04-11T15:42:57.784Z,954.44
2023-04-11T15:45:58.537Z,954.42
2023-04-11T15:48:57.704Z,954.6
2023-04-11T15:51:56.872Z,954.54
2023-04-11T15:54:57.888Z,954.53
2023-04-11T15:57:57.862Z,954.47
2023-04-11T16:00:58.698Z,954.51
2023-04-11T16:03:57.765Z,954.47
2023-04-11T16:06:57.745Z,954.36
2023-04-11T16:09:57.637Z,954.37
2023-04-11T16:12:57.485Z,954.36
2023-04-11T16:15:57.399Z,954.33
2023-04-11T16:18:57.965Z,954.24
2023-04-11T16:21:57.562Z,954.3
2023-04-11T16:24:57.544Z,954.3
2023-04-11T16:27:58.120Z,954.35
2023-04-11T16:30:58.452Z,954.29
2023-04-11T16:33:58.002Z,954.39
2023-04-11T16:36:57.573Z,954.32
2023-04-11T16:39:57.657Z,954.42
2023-04-11T16:42:57.179Z,954.16
2023-04-11T16:45:58.238Z,954.3
2023-04-11T16:48:57.325Z,954.25
2023-04-11T16:51:57.797Z,954.3
2023-04-11T16:54:57.187Z,954.15
2023-04-11T16:57:58.106Z,954.16
2023-04-11T17:00:58.294Z,954.21
2023-04-11T17:03:57.691Z,954.22
2023-04-11T17:06:57.367Z,954.22
2023-04-11T17:09:57.371Z,954.21
2023-04-11T17:12:57.419Z,954.22
2023-04-11T17:15:57.609Z,954.18
2023-04-11T17:18:57.220Z,954.15
2023-04-11T17:21:57.335Z,954.22
2023-04-11T17:24:58.049Z,954.19
2023-04-11T17:27:58.085Z,954.22
2023-04-11T17:30:58.226Z,954.1
2023-04-11T17:33:57.332Z,954.21
2023-04-11T17:36:57.926Z,954.23
2023-04-11T17:39:57.738Z,954.2
2023-04-11T17:42:58.130Z,954.17
2023-04-11T17:45:58.086Z,954.14
2023-04-11T17:48:57.057Z,954.24
2023-04-11T17:51:59.697Z,954.3
2023-04-11T17:54:57.476Z,954.33
2023-04-11T17:57:57.087Z,954.32
2023-04-11T18:00:58.880Z,954.3
2023-04-11T18:03:58.138Z,954.34
2023-04-11T18:06:57.636Z,954.25
2023-04-11T18:09:57.727Z,954.29
2023-04-11T18:12:57.723Z,954.26
2023-04-11T18:15:57.235Z,954.35
2023-04-11T18:18:57.239Z,954.35
2023-04-11T18:21:56.959Z,954.34
2023-04-11T18:24:56.977Z,954.34
2023-04-11T18:27:57.417Z,954.41
2023-04-11T18:30:58.359Z,954.34
2023-04-11T18:33:57.615Z,954.44
2023-04-11T18:36:57.140Z,954.46
2023-04-11T18:39:58.200Z,954.5
2023-04-11T18:42:58.322Z,954.47
2023-04-11T18:45:57.896Z,954.49
2023-04-11T18:48:57.529Z,954.47
2023-04-11T18:51:57.186Z,954.62
2023-04-11T18:54:57.296Z,954.6
2023-04-11T18:58:00.040Z,954.59
2023-04-11T19:01:26.119Z,954.54
2023-04-11T19:03:58.194Z,954.65
2023-04-11T19:06:56.980Z,954.61
2023-04-11T19:09:57.024Z,954.59
2023-04-11T19:12:57.122Z,954.58
2023-04-11T19:15:57.863Z,954.51
2023-04-11T19:18:57.285Z,954.47
2023-04-11T19:21:57.049Z,954.42
2023-04-11T19:24:57.619Z,954.38
2023-04-11T19:27:57.542Z,954.34
2023-04-11T19:30:57.855Z,954.42
2023-04-11T19:33:57.627Z,954.37
2023-04-11T19:36:58.218Z,954.32
2023-04-11T19:39:57.141Z,954.34
2023-04-11T19:42:57.148Z,954.28
2023-04-11T19:45:57.716Z,954.21
2023-04-11T19:48:58.071Z,954.15
2023-04-11T19:51:57.525Z,954.13
2023-04-11T19:54:57.635Z,954.13
2023-04-11T19:57:57.189Z,954.08
2023-04-11T20:00:57.928Z,954.09
2023-04-11T20:03:58.414Z,953.86
2023-04-11T20:06:57.290Z,953.96
2023-04-11T20:09:58.073Z,953.98
2023-04-11T20:12:58.045Z,953.95
2023-04-11T20:15:57.614Z,953.96
2023-04-11T20:18:58.054Z,953.92
2023-04-11T20:21:57.762Z,953.91
2023-04-11T20:24:57.756Z,953.84
2023-04-11T20:27:57.936Z,953.96
2023-04-11T20:30:57.821Z,953.82
2023-04-11T20:33:57.072Z,953.85
2023-04-11T20:36:57.678Z,953.75
2023-04-11T20:39:58.065Z,953.78
2023-04-11T20:42:56.900Z,953.71
2023-04-11T20:45:58.156Z,953.65
2023-04-11T20:48:57.632Z,953.72
2023-04-11T20:51:57.451Z,953.81
2023-04-11T20:54:57.846Z,953.66
2023-04-11T20:57:57.371Z,953.62
2023-04-11T21:00:57.313Z,953.62
2023-04-11T21:03:57.709Z,953.59
2023-04-11T21:06:57.327Z,953.59
2023-04-11T21:09:57.978Z,953.55
2023-04-11T21:12:58.074Z,953.43
2023-04-11T21:15:57.367Z,953.49
2023-04-11T21:18:57.598Z,953.47
2023-04-11T21:21:57.116Z,953.45
2023-04-11T21:24:57.038Z,953.26
2023-04-11T21:27:57.998Z,953.35
2023-04-11T21:30:57.870Z,953.33
2023-04-11T21:33:57.253Z,953.39
2023-04-11T21:36:56.893Z,953.29
2023-04-11T21:39:57.600Z,953.23
2023-04-11T21:42:57.199Z,953.16
2023-04-11T21:45:57.938Z,953.13
2023-04-11T21:48:57.417Z,953.15
2023-04-11T21:51:57.344Z,953.06
2023-04-11T21:54:57.633Z,953.1
2023-04-11T21:57:57.236Z,953.06
2023-04-11T22:00:57.514Z,953.06
2023-04-11T22:03:57.875Z,952.97
2023-04-11T22:06:57.501Z,952.91
2023-04-11T22:09:57.465Z,952.96
2023-04-11T22:12:58.033Z,952.83
2023-04-11T22:15:57.419Z,952.88
2023-04-11T22:18:56.453Z,952.76
2023-04-11T22:21:57.159Z,952.81
2023-04-11T22:24:57.242Z,952.73
2023-04-11T22:27:56.540Z,952.55
2023-04-11T22:30:57.347Z,952.51
2023-04-11T22:33:58.205Z,952.4
2023-04-11T22:36:56.903Z,952.38
2023-04-11T22:39:57.018Z,952.31
2023-04-11T22:42:57.613Z,952.25
2023-04-11T22:45:57.888Z,952.15
2023-04-11T22:48:57.604Z,952.18
2023-04-11T22:51:57.082Z,952.14
2023-04-11T22:54:57.057Z,951.93
2023-04-11T22:57:57.738Z,952.01
2023-04-11T23:00:57.372Z,951.93
2023-04-11T23:03:56.955Z,951.86
2023-04-11T23:06:57.408Z,951.89
2023-04-11T23:09:57.648Z,951.86
2023-04-11T23:12:57.095Z,951.85
2023-04-11T23:15:57.360Z,951.77
2023-04-11T23:18:56.821Z,951.79
2023-04-11T23:21:57.618Z,951.63
2023-04-11T23:24:57.522Z,951.66
2023-04-11T23:27:57.151Z,951.66
2023-04-11T23:30:57.923Z,951.55
2023-04-11T23:33:57.673Z,951.56
2023-04-11T23:36:57.049Z,951.42
2023-04-11T23:39:57.948Z,951.26
2023-04-11T23:42:57.248Z,951.41
2023-04-11T23:45:57.161Z,951.27
2023-04-11T23:48:57.288Z,951.17
2023-04-11T23:51:57.024Z,951.16
2023-04-11T23:54:57.038Z,951.23
2023-04-11T23:57:57.788Z,951.16
